Time;durP1;ratioP1;P1;durP2;ratioP2;P2;SDS_P1;SDS_P2;PMS_P1;PMS_P2;Temp;Humidity;BMP_temperature;BMP_pressure;BME280_temperature;BME280_humidity;BME280_pressure;Samples;Min_cycle;Max_cycle;Signal;HPM_P1;HPM_P2
2023/08/07 00:01:33;;;;;;;3.07;1.00;;;14.70;99.90;;;;;;4967408;28;20191;-89
2023/08/07 00:04:02;;;;;;;3.47;0.90;;;14.70;99.90;;;;;;4996480;28;20200;-89
2023/08/07 00:06:32;;;;;;;1.50;1.23;;;14.60;99.90;;;;;;4998804;28;20225;-87
2023/08/07 00:09:05;;;;;;;2.90;1.00;;;14.70;99.90;;;;;;5006433;28;20670;-89
2023/08/07 00:11:32;;;;;;;5.33;1.10;;;14.70;99.90;;;;;;4996126;28;20690;-86
2023/08/07 00:14:00;;;;;;;5.40;1.13;;;14.70;99.90;;;;;;5018504;28;20402;-88
2023/08/07 00:16:27;;;;;;;3.33;1.00;;;14.70;99.90;;;;;;5020018;28;20206;-87
2023/08/07 00:18:56;;;;;;;9.97;1.00;;;14.60;99.90;;;;;;5021671;28;20199;-88
2023/08/07 00:21:27;;;;;;;2.37;0.97;;;14.60;99.90;;;;;;5017788;28;20222;-88
2023/08/07 00:23:58;;;;;;;4.27;1.00;;;14.60;99.90;;;;;;5018471;28;20203;-87
2023/08/07 00:26:26;;;;;;;3.67;1.10;;;14.60;99.90;;;;;;5015141;28;20211;-86
2023/08/07 00:28:57;;;;;;;3.93;1.27;;;14.60;99.90;;;;;;5013419;28;20754;-87
2023/08/07 00:31:24;;;;;;;3.57;1.50;;;14.60;99.90;;;;;;4998122;28;20715;-89
2023/08/07 00:33:54;;;;;;;5.63;1.20;;;14.70;99.90;;;;;;5013768;28;20202;-88
2023/08/07 00:36:29;;;;;;;7.57;1.40;;;14.70;99.90;;;;;;5004608;28;20261;-86
2023/08/07 00:38:59;;;;;;;4.30;1.30;;;14.70;99.90;;;;;;4993512;28;20195;-88
2023/08/07 00:41:27;;;;;;;5.97;1.40;;;14.80;99.90;;;;;;5015141;28;20206;-87
2023/08/07 00:43:54;;;;;;;3.23;0.93;;;14.70;99.90;;;;;;5010359;28;20199;-87
2023/08/07 00:46:21;;;;;;;5.13;1.20;;;14.70;99.90;;;;;;5012039;28;20210;-86
2023/08/07 00:48:48;;;;;;;2.73;1.23;;;14.80;99.90;;;;;;5014844;28;20328;-87
2023/08/07 00:51:15;;;;;;;3.73;1.40;;;14.80;99.90;;;;;;5015425;28;20227;-88
2023/08/07 00:53:43;;;;;;;4.57;1.00;;;14.70;99.90;;;;;;5009308;28;20226;-88
2023/08/07 00:56:10;;;;;;;5.57;1.30;;;14.70;99.90;;;;;;5014249;28;20230;-88
2023/08/07 00:58:38;;;;;;;3.67;1.40;;;14.70;99.90;;;;;;5018282;28;20215;-89
2023/08/07 01:01:06;;;;;;;5.30;0.90;;;14.70;99.90;;;;;;5018834;28;20276;-89
2023/08/07 01:03:33;;;;;;;5.77;1.90;;;14.70;99.90;;;;;;5018410;28;20282;-87
2023/08/07 01:06:00;;;;;;;5.30;1.57;;;14.60;99.90;;;;;;5015938;28;20588;-87
2023/08/07 01:08:28;;;;;;;3.13;1.40;;;14.60;99.90;;;;;;5019803;28;20230;-86
2023/08/07 01:11:04;;;;;;;2.57;1.10;;;14.60;99.90;;;;;;5019637;28;20206;-86
2023/08/07 01:13:36;;;;;;;8.50;1.60;;;14.50;99.90;;;;;;5019132;28;20643;-86
2023/08/07 01:16:13;;;;;;;5.17;1.67;;;14.60;99.90;;;;;;5015693;28;20206;-84
2023/08/07 01:18:42;;;;;;;5.40;1.60;;;14.40;99.90;;;;;;5004294;28;20239;-85
2023/08/07 01:21:18;;;;;;;6.83;2.00;;;14.40;99.90;;;;;;5014406;28;20306;-84
2023/08/07 01:23:47;;;;;;;4.37;1.40;;;14.40;99.90;;;;;;5006604;28;20207;-83
2023/08/07 01:26:15;;;;;;;4.57;1.67;;;14.30;99.90;;;;;;5010830;28;20214;-84
2023/08/07 01:28:52;;;;;;;2.43;1.53;;;14.40;99.90;;;;;;5012046;28;20233;-82
2023/08/07 01:31:22;;;;;;;4.53;1.50;;;14.30;99.90;;;;;;5012366;28;20655;-85
2023/08/07 01:34:04;;;;;;;3.90;1.63;;;14.30;99.90;;;;;;5007818;28;20226;-86
2023/08/07 01:36:32;;;;;;;7.57;1.43;;;14.30;99.90;;;;;;5005778;28;20198;-83
2023/08/07 01:39:01;;;;;;;3.23;1.27;;;14.30;99.90;;;;;;5007353;28;20262;-84
2023/08/07 01:41:28;;;;;;;4.27;1.53;;;14.20;99.90;;;;;;5018244;28;20222;-84
2023/08/07 01:43:55;;;;;;;4.60;1.90;;;14.20;99.90;;;;;;5006605;28;20885;-85
2023/08/07 01:46:22;;;;;;;3.13;1.40;;;14.10;99.90;;;;;;4999934;28;20202;-84
2023/08/07 01:48:51;;;;;;;6.90;1.57;;;14.10;99.90;;;;;;5010506;28;20282;-87
2023/08/07 01:51:25;;;;;;;3.37;1.50;;;14.20;99.90;;;;;;5006852;28;20234;-88
2023/08/07 01:53:52;;;;;;;4.07;1.57;;;14.20;99.90;;;;;;5002904;28;20244;-86
2023/08/07 01:56:19;;;;;;;5.30;1.70;;;14.10;99.90;;;;;;5014689;28;20213;-87
2023/08/07 01:58:55;;;;;;;7.43;2.03;;;14.20;99.90;;;;;;5016570;28;20312;-87
2023/08/07 02:02:17;;;;;;;3.20;1.33;;;14.20;99.90;;;;;;5011882;28;20210;-86
2023/08/07 02:04:57;;;;;;;4.67;1.77;;;14.10;99.90;;;;;;5009478;28;20489;-85
2023/08/07 02:07:34;;;;;;;2.33;1.67;;;14.20;99.90;;;;;;5009052;28;20211;-84
2023/08/07 02:10:07;;;;;;;6.50;1.90;;;14.30;99.90;;;;;;5009915;28;20263;-86
2023/08/07 02:12:45;;;;;;;4.23;1.60;;;14.30;99.90;;;;;;5006084;28;20763;-84
2023/08/07 02:16:00;;;;;;;11.03;1.83;;;14.30;99.90;;;;;;5001681;28;20199;-85
2023/08/07 02:18:51;;;;;;;3.63;1.70;;;14.30;99.90;;;;;;5014464;28;20206;-83
2023/08/07 02:21:30;;;;;;;5.90;2.03;;;14.30;99.90;;;;;;5006288;28;20233;-82
2023/08/07 02:24:01;;;;;;;3.63;1.70;;;14.20;99.90;;;;;;5004399;28;20296;-84
2023/08/07 02:26:42;;;;;;;3.53;1.67;;;14.30;99.90;;;;;;5006575;28;20233;-84
2023/08/07 02:29:25;;;;;;;4.93;1.80;;;14.20;99.90;;;;;;4997152;28;20242;-86
2023/08/07 02:32:33;;;;;;;7.23;2.10;;;14.30;99.90;;;;;;5000266;28;20222;-85
2023/08/07 02:35:51;;;;;;;;;;;;;;;;;;;;;
2023/08/07 02:38:48;;;;;;;4.20;2.20;;;14.20;99.90;;;;;;4983157;28;20210;-85
2023/08/07 02:41:43;;;;;;;4.70;1.77;;;14.20;99.90;;;;;;5010224;28;20223;-87
2023/08/07 02:44:35;;;;;;;4.43;1.60;;;14.20;99.90;;;;;;4958542;28;20211;-84
2023/08/07 02:47:13;;;;;;;7.67;2.17;;;14.20;99.90;;;;;;5012844;28;20213;-87
2023/08/07 02:49:48;;;;;;;4.30;1.50;;;14.20;99.90;;;;;;5001519;28;20555;-86
2023/08/07 02:52:34;;;;;;;6.10;1.70;;;14.20;99.90;;;;;;5005916;28;20222;-86
2023/08/07 02:55:07;;;;;;;7.57;1.87;;;14.20;99.90;;;;;;5004663;28;20210;-84
2023/08/07 02:57:44;;;;;;;5.83;1.70;;;14.20;99.90;;;;;;5006043;28;20234;-86
2023/08/07 03:00:21;;;;;;;2.17;1.60;;;14.20;99.90;;;;;;5006242;28;20526;-86
2023/08/07 03:02:50;;;;;;;5.50;1.90;;;14.20;99.90;;;;;;5000442;28;20214;-86
2023/08/07 03:05:17;;;;;;;5.77;2.00;;;14.20;99.90;;;;;;5006114;28;20242;-86
2023/08/07 03:07:44;;;;;;;6.27;2.10;;;14.20;99.90;;;;;;5005792;28;20370;-86
2023/08/07 03:10:11;;;;;;;3.97;1.43;;;14.20;99.90;;;;;;5003893;28;20230;-84
2023/08/07 03:12:38;;;;;;;7.20;1.97;;;14.20;99.90;;;;;;5006971;28;20691;-84
2023/08/07 03:15:06;;;;;;;3.00;1.50;;;14.10;99.90;;;;;;5006426;28;20217;-86
2023/08/07 03:17:33;;;;;;;6.03;1.40;;;14.10;99.90;;;;;;5006728;28;20274;-85
2023/08/07 03:20:00;;;;;;;3.93;1.57;;;14.10;99.90;;;;;;5004084;28;20235;-83
2023/08/07 03:22:27;;;;;;;5.07;1.87;;;14.10;99.90;;;;;;5007574;28;20206;-85
2023/08/07 03:24:54;;;;;;;6.00;2.00;;;14.10;99.90;;;;;;5009756;28;20599;-85
2023/08/07 03:27:24;;;;;;;6.77;2.00;;;14.10;99.90;;;;;;5008952;28;20787;-86
2023/08/07 03:29:51;;;;;;;4.73;1.63;;;14.00;99.90;;;;;;5010175;28;20249;-85
2023/08/07 03:32:18;;;;;;;5.87;2.13;;;14.10;99.90;;;;;;5006833;28;20214;-86
2023/08/07 03:34:45;;;;;;;7.30;2.60;;;14.00;99.90;;;;;;5014272;28;20207;-88
2023/08/07 03:37:12;;;;;;;7.80;2.20;;;14.10;99.90;;;;;;5015796;28;20209;-87
2023/08/07 03:39:39;;;;;;;5.90;2.73;;;14.10;99.90;;;;;;5016767;28;20210;-89
2023/08/07 03:42:08;;;;;;;4.80;2.10;;;14.10;99.90;;;;;;5016471;28;20338;-88
2023/08/07 03:44:35;;;;;;;6.03;2.00;;;14.20;99.90;;;;;;5014363;28;20209;-88
2023/08/07 03:47:04;;;;;;;5.63;2.00;;;14.20;99.90;;;;;;5015286;28;20210;-89
2023/08/07 03:49:30;;;;;;;6.67;1.80;;;14.20;99.90;;;;;;5002540;28;20230;-86
2023/08/07 03:51:59;;;;;;;5.83;2.00;;;14.20;99.90;;;;;;5009550;28;20206;-84
2023/08/07 03:54:26;;;;;;;2.63;1.70;;;14.20;99.90;;;;;;4996708;28;20206;-84
2023/08/07 03:57:03;;;;;;;5.60;1.83;;;14.40;99.90;;;;;;4998909;28;20227;-87
2023/08/07 03:59:30;;;;;;;4.43;1.70;;;14.30;99.90;;;;;;4998364;28;20210;-84
2023/08/07 04:01:57;;;;;;;7.23;2.37;;;14.30;99.90;;;;;;5012587;28;20202;-88
2023/08/07 04:04:26;;;;;;;6.33;2.10;;;14.30;99.90;;;;;;5011229;28;20211;-86
2023/08/07 04:06:53;;;;;;;8.60;2.43;;;14.30;99.90;;;;;;5004047;28;20214;-86
2023/08/07 04:09:21;;;;;;;4.37;2.20;;;14.30;99.90;;;;;;5012921;28;20233;-87
2023/08/07 04:11:48;;;;;;;3.40;1.87;;;14.30;99.90;;;;;;5009791;28;20548;-85
2023/08/07 04:14:15;;;;;;;7.07;2.10;;;14.40;99.90;;;;;;4989798;28;20214;-85
2023/08/07 04:16:42;;;;;;;7.37;2.40;;;14.40;99.90;;;;;;4987352;28;20245;-83
2023/08/07 04:19:08;;;;;;;6.77;1.70;;;14.40;99.90;;;;;;5000794;28;20217;-85
2023/08/07 04:21:35;;;;;;;7.33;1.70;;;14.40;99.90;;;;;;4982375;28;20199;-81
2023/08/07 04:24:10;;;;;;;4.00;1.80;;;14.40;99.90;;;;;;5001418;28;20343;-86
2023/08/07 04:26:38;;;;;;;5.03;2.00;;;14.50;99.90;;;;;;4990865;28;20717;-85
2023/08/07 04:29:07;;;;;;;7.17;1.80;;;14.50;99.90;;;;;;5002214;28;20226;-86
2023/08/07 04:31:34;;;;;;;5.13;1.93;;;14.60;99.90;;;;;;4999215;28;20694;-82
2023/08/07 04:34:01;;;;;;;3.53;1.77;;;14.60;99.90;;;;;;5003160;28;20253;-84
2023/08/07 04:36:28;;;;;;;3.17;1.90;;;14.60;99.90;;;;;;4992523;28;20206;-83
2023/08/07 04:38:55;;;;;;;3.33;1.70;;;14.60;99.90;;;;;;4995657;28;20218;-84
2023/08/07 04:41:22;;;;;;;4.53;1.50;;;14.70;99.90;;;;;;4997445;28;20198;-85
2023/08/07 04:43:49;;;;;;;3.60;1.60;;;14.60;99.90;;;;;;5007027;28;20214;-84
2023/08/07 04:46:16;;;;;;;3.90;1.70;;;14.60;99.90;;;;;;5006651;28;20203;-81
2023/08/07 04:48:43;;;;;;;3.40;1.43;;;14.70;99.90;;;;;;5005073;28;20658;-83
2023/08/07 04:51:10;;;;;;;8.53;1.80;;;14.70;99.90;;;;;;4994653;28;20211;-80
2023/08/07 04:53:36;;;;;;;1.40;1.30;;;14.70;99.90;;;;;;4999503;28;20214;-81
2023/08/07 04:56:03;;;;;;;4.40;1.93;;;14.70;99.90;;;;;;5006534;28;20203;-81
2023/08/07 04:58:30;;;;;;;4.40;1.90;;;14.70;99.90;;;;;;4985557;28;20358;-81
2023/08/07 05:00:58;;;;;;;7.23;1.97;;;14.70;99.90;;;;;;5011358;28;20689;-81
2023/08/07 05:03:26;;;;;;;5.67;1.90;;;14.70;99.90;;;;;;5002471;28;20230;-81
2023/08/07 05:06:00;;;;;;;4.03;1.77;;;14.70;99.90;;;;;;5014580;28;20214;-84
2023/08/07 05:08:28;;;;;;;5.77;1.70;;;14.70;99.90;;;;;;5014337;28;20313;-80
2023/08/07 05:10:54;;;;;;;3.33;1.67;;;14.70;99.90;;;;;;5006690;28;20199;-81
2023/08/07 05:13:21;;;;;;;2.27;1.23;;;14.80;99.90;;;;;;5007571;28;20267;-81
2023/08/07 05:15:49;;;;;;;3.03;1.50;;;14.70;99.90;;;;;;5006416;28;20203;-81
2023/08/07 05:18:16;;;;;;;3.90;2.00;;;14.70;99.90;;;;;;4990515;28;20210;-81
2023/08/07 05:20:42;;;;;;;8.57;2.00;;;14.70;99.90;;;;;;5009579;28;20210;-80
2023/08/07 05:23:10;;;;;;;5.30;1.90;;;14.70;99.90;;;;;;4998941;28;20222;-79
2023/08/07 05:25:37;;;;;;;3.73;1.63;;;14.70;99.90;;;;;;5004368;28;20318;-79
2023/08/07 05:28:05;;;;;;;3.07;1.80;;;14.70;99.90;;;;;;5006553;28;20618;-82
2023/08/07 05:30:32;;;;;;;5.10;1.80;;;14.70;99.90;;;;;;4989996;28;20726;-79
2023/08/07 05:32:59;;;;;;;7.83;1.90;;;14.70;99.90;;;;;;5004973;28;20209;-79
2023/08/07 05:35:26;;;;;;;7.90;2.03;;;14.70;99.90;;;;;;5006654;28;20221;-79
2023/08/07 05:37:53;;;;;;;3.70;1.70;;;14.80;99.90;;;;;;5006649;28;20206;-79
2023/08/07 05:40:20;;;;;;;5.70;2.30;;;14.70;99.90;;;;;;5010658;28;20268;-80
2023/08/07 05:42:47;;;;;;;5.47;2.10;;;14.70;99.90;;;;;;5010462;28;20225;-80
2023/08/07 05:45:13;;;;;;;9.33;2.40;;;14.80;99.90;;;;;;5008448;28;20211;-79
2023/08/07 05:47:40;;;;;;;5.23;2.50;;;14.70;99.90;;;;;;4996485;28;20597;-80
2023/08/07 05:50:07;;;;;;;4.93;2.30;;;14.60;99.90;;;;;;5008708;28;20230;-79
2023/08/07 05:52:34;;;;;;;5.57;2.13;;;14.70;99.90;;;;;;5006618;28;20202;-81
2023/08/07 05:55:01;;;;;;;7.70;2.50;;;14.70;99.90;;;;;;5010531;28;20221;-85
2023/08/07 05:57:30;;;;;;;10.70;2.70;;;14.70;99.90;;;;;;5009147;28;20210;-81
2023/08/07 05:59:57;;;;;;;5.70;2.27;;;14.70;99.90;;;;;;5011118;28;20211;-85
2023/08/07 06:02:24;;;;;;;5.90;2.47;;;14.70;99.90;;;;;;4993586;28;20205;-81
2023/08/07 06:04:52;;;;;;;6.63;2.57;;;14.70;99.90;;;;;;4993820;28;20206;-81
2023/08/07 06:07:19;;;;;;;6.97;2.63;;;14.70;99.90;;;;;;5011416;28;20214;-82
2023/08/07 06:09:46;;;;;;;11.93;2.53;;;14.80;99.90;;;;;;5011498;28;20230;-83
2023/08/07 06:12:13;;;;;;;5.00;2.20;;;14.80;99.90;;;;;;5010523;28;20230;-83
2023/08/07 06:14:40;;;;;;;5.83;2.47;;;15.00;99.90;;;;;;5011321;28;20205;-82
2023/08/07 06:17:06;;;;;;;8.50;2.60;;;15.00;99.90;;;;;;4993610;28;20210;-80
2023/08/07 06:19:33;;;;;;;9.13;2.80;;;15.00;99.90;;;;;;5011615;28;20206;-82
2023/08/07 06:22:00;;;;;;;9.87;3.07;;;15.00;99.90;;;;;;5011199;28;20206;-82
2023/08/07 06:24:28;;;;;;;8.53;2.60;;;15.00;99.90;;;;;;4993392;28;20298;-82
2023/08/07 06:26:55;;;;;;;8.37;2.50;;;15.00;99.90;;;;;;5010947;28;20211;-82
2023/08/07 06:29:22;;;;;;;7.73;2.57;;;15.00;99.90;;;;;;4993073;28;20230;-84
2023/08/07 06:31:51;;;;;;;6.70;2.50;;;15.00;99.90;;;;;;4993705;28;20206;-82
2023/08/07 06:34:18;;;;;;;7.80;2.83;;;15.00;99.90;;;;;;4993485;28;20206;-84
2023/08/07 06:36:45;;;;;;;6.67;2.83;;;15.00;99.90;;;;;;5003841;28;20210;-85
2023/08/07 06:39:12;;;;;;;10.77;3.63;;;14.90;99.90;;;;;;5003525;28;20211;-80
2023/08/07 06:41:39;;;;;;;8.60;3.70;;;14.90;99.90;;;;;;5007952;28;20231;-81
2023/08/07 06:44:06;;;;;;;9.17;3.53;;;14.90;99.90;;;;;;4999328;28;20211;-82
2023/08/07 06:46:33;;;;;;;8.83;3.27;;;14.90;99.90;;;;;;4999366;28;20264;-81
2023/08/07 06:48:59;;;;;;;8.30;2.93;;;14.90;99.90;;;;;;5008076;28;20222;-81
2023/08/07 06:51:26;;;;;;;8.40;3.43;;;15.00;99.90;;;;;;5000029;28;20650;-82
2023/08/07 06:53:53;;;;;;;9.13;3.17;;;15.00;99.90;;;;;;4996938;28;20716;-81
2023/08/07 06:56:20;;;;;;;12.97;3.43;;;15.00;99.90;;;;;;4990328;28;20301;-84
2023/08/07 06:58:47;;;;;;;6.70;2.80;;;15.10;99.90;;;;;;4994575;28;20289;-80
2023/08/07 07:01:14;;;;;;;9.83;3.33;;;15.20;99.90;;;;;;4994067;28;20293;-82
2023/08/07 07:03:41;;;;;;;11.10;3.10;;;15.20;99.90;;;;;;4992153;28;20203;-81
2023/08/07 07:06:09;;;;;;;10.38;3.83;;;15.40;99.90;;;;;;5006495;28;20238;-82
2023/08/07 07:08:35;;;;;;;8.90;2.67;;;15.50;99.90;;;;;;5012102;28;20261;-83
2023/08/07 07:11:04;;;;;;;13.80;3.38;;;15.50;99.90;;;;;;4991892;28;20195;-83
2023/08/07 07:13:31;;;;;;;7.35;3.45;;;15.50;99.90;;;;;;4994719;28;20572;-82
2023/08/07 07:15:57;;;;;;;6.55;2.90;;;15.60;99.90;;;;;;5010434;28;20199;-80
2023/08/07 07:18:24;;;;;;;6.60;2.85;;;15.70;99.90;;;;;;5004614;28;20286;-83
2023/08/07 07:20:58;;;;;;;5.90;2.47;;;15.70;99.90;;;;;;5007616;28;20213;-83
2023/08/07 07:23:25;;;;;;;3.90;2.33;;;15.70;99.90;;;;;;4989234;28;20205;-82
2023/08/07 07:25:52;;;;;;;5.75;2.92;;;15.70;99.90;;;;;;5004974;28;20195;-79
2023/08/07 07:28:19;;;;;;;7.45;2.45;;;15.80;99.90;;;;;;4999424;28;20235;-81
2023/08/07 07:30:46;;;;;;;6.78;1.92;;;15.90;99.90;;;;;;4989562;28;20691;-81
2023/08/07 07:33:13;;;;;;;7.65;2.95;;;16.20;99.90;;;;;;5002534;28;20206;-85
2023/08/07 07:35:40;;;;;;;17.35;2.60;;;16.00;99.90;;;;;;5000663;28;20241;-83
2023/08/07 07:38:07;;;;;;;6.22;2.45;;;16.30;99.90;;;;;;5009746;28;20217;-84
2023/08/07 07:40:34;;;;;;;5.65;2.63;;;16.30;99.90;;;;;;5005854;28;20656;-82
2023/08/07 07:43:01;;;;;;;5.03;2.58;;;16.50;99.90;;;;;;5006656;28;20218;-83
2023/08/07 07:45:29;;;;;;;6.50;2.38;;;16.50;99.90;;;;;;5009402;28;20229;-82
2023/08/07 07:47:56;;;;;;;7.10;2.08;;;16.60;99.90;;;;;;4992089;28;20589;-81
2023/08/07 07:50:23;;;;;;;7.78;2.45;;;16.60;99.90;;;;;;4991350;28;20226;-83
2023/08/07 07:52:49;;;;;;;8.88;2.47;;;17.80;99.90;;;;;;5008049;28;20198;-83
2023/08/07 07:55:16;;;;;;;7.43;2.78;;;17.40;99.90;;;;;;4991843;28;20440;-84
2023/08/07 07:57:43;;;;;;;9.70;2.53;;;17.80;99.90;;;;;;5009490;28;20215;-81
2023/08/07 08:00:12;;;;;;;8.93;2.60;;;18.10;99.90;;;;;;5003606;28;20218;-83
2023/08/07 08:02:43;;;;;;;9.15;2.58;;;18.40;99.90;;;;;;4999325;28;20583;-85
2023/08/07 08:05:13;;;;;;;5.30;2.15;;;18.70;99.90;;;;;;4979799;28;20333;-80
2023/08/07 08:07:42;;;;;;;5.80;1.95;;;19.20;99.90;;;;;;4995027;28;20549;-81
2023/08/07 08:10:09;;;;;;;7.15;1.88;;;19.40;99.90;;;;;;4995439;28;20223;-83
2023/08/07 08:12:36;;;;;;;5.13;2.10;;;19.80;99.90;;;;;;5004023;28;20226;-84
2023/08/07 08:15:04;;;;;;;8.10;2.55;;;21.10;99.90;;;;;;4997734;28;20207;-83
2023/08/07 08:17:31;;;;;;;8.52;2.25;;;20.50;99.90;;;;;;4989301;28;20228;-81
2023/08/07 08:19:58;;;;;;;7.00;2.20;;;20.80;99.90;;;;;;4976929;28;20281;-81
2023/08/07 08:22:25;;;;;;;4.43;1.83;;;21.10;99.90;;;;;;4994610;28;20342;-83
2023/08/07 08:24:52;;;;;;;4.93;2.25;;;21.20;99.90;;;;;;4998329;28;20217;-82
2023/08/07 08:27:19;;;;;;;7.03;2.40;;;21.00;99.90;;;;;;4978941;28;20218;-82
2023/08/07 08:29:46;;;;;;;6.47;2.40;;;20.90;99.90;;;;;;5003166;28;20288;-80
2023/08/07 08:32:13;;;;;;;8.55;2.40;;;20.80;99.90;;;;;;4996759;28;20600;-79
2023/08/07 08:34:40;;;;;;;9.18;2.40;;;20.90;99.90;;;;;;4981750;28;20203;-85
2023/08/07 08:37:07;;;;;;;7.13;1.92;;;21.10;99.90;;;;;;5005793;28;20210;-80
2023/08/07 08:39:34;;;;;;;5.22;1.70;;;21.30;99.90;;;;;;5001529;28;20622;-81
2023/08/07 08:42:02;;;;;;;4.68;1.58;;;21.60;99.90;;;;;;5003428;28;20219;-79
2023/08/07 08:44:31;;;;;;;5.03;2.25;;;21.50;99.90;;;;;;4981265;28;20273;-79
2023/08/07 08:47:00;;;;;;;5.07;2.10;;;21.50;99.90;;;;;;4995630;28;20217;-81
2023/08/07 08:49:41;;;;;;;5.78;2.22;;;21.70;99.90;;;;;;5001878;28;20276;-79
2023/08/07 08:52:09;;;;;;;4.28;1.65;;;21.70;99.90;;;;;;5005545;28;20214;-78
2023/08/07 08:54:36;;;;;;;4.68;1.50;;;21.80;99.90;;;;;;5001907;28;20273;-80
2023/08/07 08:57:03;;;;;;;6.15;1.90;;;21.80;99.90;;;;;;5005442;28;20218;-81
2023/08/07 08:59:30;;;;;;;4.95;1.80;;;21.70;99.90;;;;;;5007892;28;20229;-83
2023/08/07 09:01:57;;;;;;;3.78;1.50;;;21.70;99.90;;;;;;4984226;28;20198;-80
2023/08/07 09:04:24;;;;;;;5.03;1.45;;;21.80;99.90;;;;;;5008716;28;20704;-83
2023/08/07 09:06:54;;;;;;;8.63;1.65;;;21.80;99.90;;;;;;5008045;28;20207;-82
2023/08/07 09:09:23;;;;;;;6.28;1.42;;;21.60;99.90;;;;;;4978742;28;20716;-81
2023/08/07 09:11:51;;;;;;;5.82;1.63;;;21.20;99.90;;;;;;4982189;28;20229;-80
2023/08/07 09:14:24;;;;;;;5.30;2.08;;;20.80;99.90;;;;;;5002090;28;20205;-84
2023/08/07 09:16:51;;;;;;;7.38;1.80;;;20.20;99.90;;;;;;5000293;28;20206;-85
2023/08/07 09:19:18;;;;;;;5.10;1.70;;;19.70;99.90;;;;;;4999583;28;20203;-86
2023/08/07 09:21:45;;;;;;;5.03;2.00;;;19.50;99.90;;;;;;5002223;28;20557;-81
2023/08/07 09:24:12;;;;;;;5.47;1.80;;;19.00;99.90;;;;;;5010423;28;20199;-83
2023/08/07 09:26:43;;;;;;;6.82;2.10;;;18.80;99.90;;;;;;5006904;28;20214;-85
2023/08/07 09:29:10;;;;;;;6.40;2.03;;;18.70;99.90;;;;;;4998522;28;20207;-81
2023/08/07 09:31:37;;;;;;;5.07;1.90;;;19.00;99.90;;;;;;5005227;28;20209;-82
2023/08/07 09:34:05;;;;;;;5.18;1.80;;;19.40;99.90;;;;;;5002400;28;20214;-84
2023/08/07 09:36:33;;;;;;;4.95;1.80;;;20.00;99.90;;;;;;5003970;28;20275;-81
2023/08/07 09:39:04;;;;;;;6.75;2.22;;;20.20;99.90;;;;;;5011152;28;20684;-84
2023/08/07 09:41:31;;;;;;;5.60;1.70;;;20.50;99.90;;;;;;5007021;28;20211;-84
2023/08/07 09:43:58;;;;;;;4.78;1.92;;;20.60;99.90;;;;;;4999364;28;20212;-83
2023/08/07 09:46:26;;;;;;;5.13;1.70;;;20.80;99.90;;;;;;4997259;28;20571;-82
2023/08/07 09:48:58;;;;;;;7.32;1.70;;;20.80;99.90;;;;;;4995815;28;21358;-84
2023/08/07 09:51:26;;;;;;;4.65;1.40;;;20.70;99.90;;;;;;4995214;28;20710;-84
2023/08/07 09:53:52;;;;;;;3.92;1.75;;;20.60;99.90;;;;;;5000606;28;20217;-83
2023/08/07 09:56:19;;;;;;;1.80;1.13;;;20.60;99.90;;;;;;5007570;28;20213;-84
2023/08/07 09:58:49;;;;;;;2.30;1.15;;;20.70;99.90;;;;;;5001759;28;20289;-83
2023/08/07 10:01:16;;;;;;;5.57;1.58;;;20.90;99.90;;;;;;5000073;28;20207;-81
2023/08/07 10:03:44;;;;;;;5.35;1.70;;;20.70;99.90;;;;;;4997949;28;20195;-82
2023/08/07 10:06:12;;;;;;;4.70;1.60;;;20.30;99.90;;;;;;5001480;28;20241;-83
2023/08/07 10:08:39;;;;;;;2.05;1.35;;;20.20;99.90;;;;;;5006144;28;20690;-82
2023/08/07 10:11:10;;;;;;;3.30;1.27;;;19.90;99.90;;;;;;4999735;28;20244;-82
2023/08/07 10:13:38;;;;;;;3.30;1.80;;;19.90;99.90;;;;;;4999338;28;20280;-82
2023/08/07 10:16:06;;;;;;;6.53;1.58;;;20.00;99.90;;;;;;4989539;28;20557;-84
2023/08/07 10:18:35;;;;;;;2.63;1.23;;;19.90;99.90;;;;;;4978699;28;20563;-81
2023/08/07 10:21:03;;;;;;;3.20;1.58;;;19.80;99.90;;;;;;4977198;28;20226;-86
2023/08/07 10:23:34;;;;;;;2.72;1.30;;;19.90;99.90;;;;;;4980454;28;20207;-82
2023/08/07 10:26:06;;;;;;;3.05;1.40;;;19.90;99.90;;;;;;4999105;28;20204;-83
2023/08/07 10:28:38;;;;;;;2.97;1.65;;;20.20;99.90;;;;;;4981851;28;20227;-81
2023/08/07 10:31:10;;;;;;;5.22;1.50;;;20.50;99.90;;;;;;4987254;28;20234;-81
2023/08/07 10:33:38;;;;;;;2.85;1.10;;;20.90;99.90;;;;;;4991553;28;20632;-84
2023/08/07 10:36:10;;;;;;;3.00;1.13;;;21.00;99.90;;;;;;4989835;28;20199;-82
2023/08/07 10:38:37;;;;;;;2.38;1.10;;;21.00;99.90;;;;;;5003112;28;20262;-81
2023/08/07 10:41:08;;;;;;;4.03;1.20;;;20.90;99.90;;;;;;5015153;28;20210;-83
2023/08/07 10:43:39;;;;;;;2.88;1.38;;;20.90;99.90;;;;;;5013811;28;20230;-82
2023/08/07 10:46:11;;;;;;;5.38;1.48;;;20.90;99.90;;;;;;5009391;28;20206;-81
2023/08/07 10:48:45;;;;;;;2.72;1.25;;;20.90;99.90;;;;;;5010191;28;20198;-83
2023/08/07 10:51:17;;;;;;;3.03;1.30;;;20.80;99.90;;;;;;4986071;28;20254;-81
2023/08/07 10:53:48;;;;;;;5.63;1.38;;;20.90;99.90;;;;;;4985664;28;20195;-83
2023/08/07 10:56:15;;;;;;;1.92;1.42;;;21.10;99.90;;;;;;4985920;28;20216;-84
2023/08/07 10:58:47;;;;;;;2.90;1.30;;;21.20;99.90;;;;;;5005504;28;20211;-82
2023/08/07 11:01:19;;;;;;;2.10;1.25;;;21.40;99.90;;;;;;5004479;28;20207;-84
2023/08/07 11:03:58;;;;;;;4.07;1.25;;;21.60;99.90;;;;;;4998772;28;20203;-83
2023/08/07 11:06:26;;;;;;;3.53;1.30;;;21.80;99.90;;;;;;4994984;28;20322;-82
2023/08/07 11:08:53;;;;;;;3.33;1.30;;;21.90;99.90;;;;;;5001418;28;20644;-81
2023/08/07 11:11:20;;;;;;;7.72;1.50;;;21.80;99.90;;;;;;5007257;28;20768;-83
2023/08/07 11:13:47;;;;;;;2.22;1.10;;;21.60;99.90;;;;;;4994313;28;20207;-81
2023/08/07 11:16:14;;;;;;;3.55;1.30;;;21.50;99.90;;;;;;5001499;28;20206;-80
2023/08/07 11:18:42;;;;;;;2.05;1.20;;;21.40;99.90;;;;;;4985491;28;20252;-84
2023/08/07 11:21:11;;;;;;;5.40;1.60;;;21.30;99.90;;;;;;5005231;28;20210;-80
2023/08/07 11:23:47;;;;;;;3.50;1.58;;;21.30;99.90;;;;;;4985891;28;20204;-81
2023/08/07 11:26:14;;;;;;;4.85;1.65;;;21.40;99.90;;;;;;4990314;28;20333;-80
2023/08/07 11:28:41;;;;;;;4.13;1.50;;;21.60;99.90;;;;;;4984812;28;20232;-82
2023/08/07 11:31:08;;;;;;;4.95;1.63;;;21.70;99.90;;;;;;4988308;28;20230;-83
2023/08/07 11:33:39;;;;;;;4.28;1.20;;;22.00;99.90;;;;;;4996843;28;20258;-85
2023/08/07 11:36:14;;;;;;;3.90;1.60;;;22.20;99.90;;;;;;5003104;28;20202;-85
2023/08/07 11:38:44;;;;;;;2.60;1.50;;;22.10;99.90;;;;;;5002687;28;20198;-84
2023/08/07 11:41:16;;;;;;;3.97;1.60;;;22.00;99.90;;;;;;4979922;28;20909;-81
2023/08/07 11:43:43;;;;;;;4.68;1.48;;;21.90;99.90;;;;;;5000417;28;20206;-83
2023/08/07 11:46:12;;;;;;;2.67;1.50;;;21.90;99.90;;;;;;4996438;28;20209;-81
2023/08/07 11:48:41;;;;;;;5.55;1.50;;;21.70;99.90;;;;;;4980726;28;20205;-81
2023/08/07 11:51:08;;;;;;;5.80;1.65;;;21.60;99.90;;;;;;5000653;28;20241;-82
2023/08/07 11:53:38;;;;;;;3.08;1.25;;;21.40;99.90;;;;;;4999189;28;20203;-80
2023/08/07 11:56:11;;;;;;;3.00;1.60;;;21.20;99.90;;;;;;4976804;28;20203;-81
2023/08/07 11:58:40;;;;;;;6.30;1.80;;;21.20;99.90;;;;;;4980270;28;20262;-80
2023/08/07 12:01:25;;;;;;;6.07;1.98;;;21.20;99.90;;;;;;4996708;28;20277;-80
2023/08/07 12:04:09;;;;;;;5.82;1.77;;;21.40;99.90;;;;;;4986538;28;20659;-82
2023/08/07 12:06:40;;;;;;;5.97;1.88;;;21.40;99.90;;;;;;4991577;28;20198;-82
2023/08/07 12:09:12;;;;;;;2.70;1.33;;;21.40;99.90;;;;;;4988770;28;20211;-79
2023/08/07 12:11:39;;;;;;;4.30;1.67;;;21.40;99.90;;;;;;4980949;28;20235;-85
2023/08/07 12:14:06;;;;;;;4.13;1.63;;;21.40;99.90;;;;;;5004360;28;20332;-82
2023/08/07 12:16:35;;;;;;;4.15;1.70;;;21.50;99.90;;;;;;5006593;28;20209;-83
2023/08/07 12:19:03;;;;;;;6.80;1.88;;;21.70;99.90;;;;;;4999058;28;20199;-81
2023/08/07 12:21:33;;;;;;;4.05;1.40;;;21.90;99.90;;;;;;5001470;28;20203;-83
2023/08/07 12:24:00;;;;;;;3.17;1.30;;;21.80;99.90;;;;;;5004922;28;20196;-83
2023/08/07 12:26:27;;;;;;;2.45;1.42;;;21.60;99.90;;;;;;4997554;28;20688;-84
2023/08/07 12:28:54;;;;;;;5.18;1.52;;;21.60;99.90;;;;;;4996731;28;20210;-82
2023/08/07 12:31:21;;;;;;;2.05;1.20;;;21.50;99.90;;;;;;4997665;28;20231;-82
2023/08/07 12:33:48;;;;;;;3.85;1.17;;;21.80;99.90;;;;;;5006218;28;20634;-84
2023/08/07 12:36:16;;;;;;;3.38;1.40;;;21.90;99.90;;;;;;4999512;28;20324;-81
2023/08/07 12:38:47;;;;;;;1.95;1.30;;;22.00;99.90;;;;;;4996432;28;20195;-81
2023/08/07 12:41:14;;;;;;;4.00;1.27;;;22.10;99.90;;;;;;4995904;28;20258;-81
2023/08/07 12:43:43;;;;;;;3.28;1.25;;;22.20;99.90;;;;;;4999066;28;20207;-79
2023/08/07 12:46:11;;;;;;;3.35;1.15;;;22.20;99.90;;;;;;5002473;28;20207;-81
2023/08/07 12:48:40;;;;;;;3.47;1.17;;;22.10;99.90;;;;;;5012321;28;20475;-81
2023/08/07 12:51:07;;;;;;;3.05;1.30;;;22.20;99.90;;;;;;5007185;28;20223;-81
2023/08/07 12:53:34;;;;;;;2.72;1.20;;;22.20;99.90;;;;;;5019584;28;20206;-79
2023/08/07 12:56:02;;;;;;;1.83;1.20;;;22.40;99.90;;;;;;5017921;28;20206;-79
2023/08/07 12:58:29;;;;;;;3.90;1.30;;;22.50;99.90;;;;;;5022393;28;20449;-79
2023/08/07 13:00:57;;;;;;;3.63;1.25;;;22.50;99.90;;;;;;5010286;28;20261;-81